createdAt,value
2018-12-29T00:02:13.969Z,23.03
2018-12-29T00:04:42.716Z,22.37
2018-12-29T00:07:11.317Z,23.20
2018-12-29T00:09:39.864Z,22.40
2018-12-29T00:12:08.482Z,21.97
2018-12-29T00:14:37.150Z,21.50
2018-12-29T00:17:05.990Z,21.90
2018-12-29T00:19:35.691Z,21.67
2018-12-29T00:22:04.332Z,23.20
2018-12-29T00:24:32.810Z,21.63
2018-12-29T00:27:01.723Z,22.77
2018-12-29T00:29:30.236Z,22.23
2018-12-29T00:32:00.340Z,22.57
2018-12-29T00:34:28.864Z,23.07
2018-12-29T00:36:57.631Z,23.00
2018-12-29T00:39:26.191Z,20.90
2018-12-29T00:41:54.761Z,20.10
2018-12-29T00:44:23.301Z,19.87
2018-12-29T00:46:51.833Z,20.77
2018-12-29T00:49:20.282Z,20.53
2018-12-29T00:51:48.719Z,20.30
2018-12-29T00:54:17.198Z,20.17
2018-12-29T00:56:45.721Z,21.13
2018-12-29T00:59:14.281Z,20.43
2018-12-29T01:01:42.945Z,19.97
2018-12-29T01:04:11.471Z,23.03
2018-12-29T01:06:40.067Z,21.43
2018-12-29T01:09:08.603Z,23.00
2018-12-29T01:11:37.166Z,21.63
2018-12-29T01:14:06.752Z,21.67
2018-12-29T01:16:35.567Z,23.63
2018-12-29T01:19:04.307Z,22.27
2018-12-29T01:21:32.814Z,24.53
2018-12-29T01:24:01.785Z,22.90
2018-12-29T01:26:30.449Z,22.77
2018-12-29T01:28:59.744Z,21.30
2018-12-29T01:31:28.255Z,21.97
2018-12-29T01:33:56.811Z,23.40
2018-12-29T01:36:25.374Z,23.87
2018-12-29T01:38:53.860Z,22.37
2018-12-29T01:41:22.487Z,22.57
2018-12-29T01:43:50.877Z,24.00
2018-12-29T01:46:19.521Z,22.37
2018-12-29T01:48:48.099Z,23.97
2018-12-29T01:51:16.697Z,25.10
2018-12-29T01:53:47.428Z,26.03
2018-12-29T01:56:15.977Z,23.93
2018-12-29T01:58:44.511Z,22.70
2018-12-29T02:01:13.551Z,24.27
2018-12-29T02:03:42.243Z,27.83
2018-12-29T02:06:11.065Z,26.93
2018-12-29T02:08:39.640Z,25.80
2018-12-29T02:11:08.459Z,27.90
2018-12-29T02:13:37.068Z,26.80
2018-12-29T02:16:05.591Z,26.87
2018-12-29T02:18:34.046Z,28.43
2018-12-29T02:21:02.655Z,26.00
2018-12-29T02:23:31.087Z,27.00
2018-12-29T02:25:59.552Z,27.43
2018-12-29T02:28:28.411Z,26.10
2018-12-29T02:30:56.879Z,28.87
2018-12-29T02:33:25.475Z,29.10
2018-12-29T02:35:54.047Z,27.60
2018-12-29T02:38:22.492Z,31.90
2018-12-29T02:40:50.928Z,28.73
2018-12-29T02:43:19.454Z,25.47
2018-12-29T02:45:48.275Z,27.17
2018-12-29T02:48:16.881Z,26.30
2018-12-29T02:50:45.512Z,26.17
2018-12-29T02:53:14.300Z,26.70
2018-12-29T02:55:42.784Z,26.83
2018-12-29T02:58:11.347Z,26.10
2018-12-29T03:00:39.911Z,26.70
2018-12-29T03:03:09.965Z,28.60
2018-12-29T03:05:38.501Z,28.30
2018-12-29T03:08:07.207Z,28.63
2018-12-29T03:10:35.663Z,26.87
2018-12-29T03:13:04.229Z,25.83
2018-12-29T03:15:32.737Z,27.50
2018-12-29T03:18:01.351Z,26.13
2018-12-29T03:20:29.858Z,29.30
2018-12-29T03:22:58.337Z,28.20
2018-12-29T03:25:27.256Z,27.07
2018-12-29T03:27:55.797Z,28.57
2018-12-29T03:30:24.539Z,28.30
2018-12-29T03:32:53.294Z,27.43
2018-12-29T03:35:22.111Z,25.97
2018-12-29T03:37:50.829Z,27.47
2018-12-29T03:40:19.349Z,27.27
2018-12-29T03:42:48.024Z,25.70
2018-12-29T03:45:16.494Z,26.03
2018-12-29T03:47:45.117Z,27.60
2018-12-29T03:50:13.679Z,27.33
2018-12-29T03:52:42.230Z,24.77
2018-12-29T03:55:10.862Z,26.43
2018-12-29T03:57:39.308Z,27.50
2018-12-29T04:00:08.243Z,25.23
2018-12-29T04:02:36.764Z,25.30
2018-12-29T04:05:05.555Z,24.37
2018-12-29T04:07:40.112Z,23.67
2018-12-29T04:10:16.094Z,24.07
2018-12-29T04:12:46.997Z,24.67
2018-12-29T04:15:15.488Z,24.47
2018-12-29T04:17:44.035Z,22.57
2018-12-29T04:20:12.524Z,22.30
2018-12-29T04:22:41.349Z,22.90
2018-12-29T04:25:09.990Z,23.43
2018-12-29T04:27:38.621Z,21.43
2018-12-29T04:30:08.428Z,22.23
2018-12-29T04:32:37.057Z,22.13
2018-12-29T04:35:06.363Z,23.63
2018-12-29T04:37:35.273Z,23.27
2018-12-29T04:40:03.855Z,23.00
2018-12-29T04:42:32.930Z,24.97
2018-12-29T04:45:01.744Z,23.17
2018-12-29T04:47:30.474Z,23.33
2018-12-29T04:49:59.056Z,24.47
2018-12-29T04:52:27.597Z,22.40
2018-12-29T04:54:56.094Z,22.07
2018-12-29T04:57:24.629Z,22.47
2018-12-29T04:59:53.343Z,23.10
2018-12-29T05:02:21.845Z,23.50
2018-12-29T05:04:50.467Z,21.93
2018-12-29T05:07:19.071Z,23.23
2018-12-29T05:09:47.577Z,22.67
2018-12-29T05:12:16.204Z,23.33
2018-12-29T05:14:44.846Z,23.77
2018-12-29T05:17:13.348Z,21.80
2018-12-29T05:19:41.932Z,22.27
2018-12-29T05:22:10.415Z,22.30
2018-12-29T05:24:39.535Z,22.03
2018-12-29T05:27:08.099Z,21.30
2018-12-29T05:29:36.552Z,21.73
2018-12-29T05:32:05.010Z,20.73
2018-12-29T05:34:33.536Z,21.07
2018-12-29T05:37:02.038Z,20.83
2018-12-29T05:39:31.013Z,20.57
2018-12-29T05:41:59.438Z,20.53
2018-12-29T05:44:27.869Z,20.43
2018-12-29T05:46:56.300Z,20.63
2018-12-29T05:49:25.326Z,19.27
2018-12-29T05:51:53.793Z,19.53
2018-12-29T05:54:22.327Z,18.97
2018-12-29T05:56:50.818Z,21.10
2018-12-29T05:59:19.268Z,20.37
2018-12-29T06:01:47.771Z,20.60
2018-12-29T06:04:16.257Z,21.37
2018-12-29T06:06:44.782Z,19.07
2018-12-29T06:09:13.267Z,19.90
2018-12-29T06:11:41.850Z,19.20
2018-12-29T06:14:10.430Z,17.80
2018-12-29T06:16:38.906Z,18.20
2018-12-29T06:19:07.395Z,18.37
2018-12-29T06:21:35.845Z,18.83
2018-12-29T06:24:04.316Z,17.80
2018-12-29T06:26:32.875Z,19.00
2018-12-29T06:29:01.464Z,19.40
2018-12-29T06:31:29.977Z,19.87
2018-12-29T06:33:58.474Z,19.57
2018-12-29T06:36:26.958Z,19.70
2018-12-29T06:38:55.669Z,17.80
2018-12-29T06:41:24.209Z,19.77
2018-12-29T06:43:52.706Z,20.67
2018-12-29T06:46:21.280Z,19.97
2018-12-29T06:48:50.047Z,20.07
2018-12-29T06:51:18.828Z,19.80
2018-12-29T06:53:47.255Z,18.03
2018-12-29T06:56:15.744Z,19.73
2018-12-29T06:58:44.286Z,19.83
2018-12-29T07:01:12.979Z,21.10
2018-12-29T07:03:41.499Z,22.03
2018-12-29T07:06:09.995Z,21.17
2018-12-29T07:08:38.456Z,21.13
2018-12-29T07:11:06.960Z,22.10
2018-12-29T07:13:35.488Z,19.83
2018-12-29T07:16:04.029Z,20.00
2018-12-29T07:18:32.674Z,20.43
2018-12-29T07:21:01.454Z,21.50
2018-12-29T07:23:29.974Z,21.00
2018-12-29T07:25:58.818Z,19.93
2018-12-29T07:28:27.607Z,21.23
2018-12-29T07:30:56.093Z,20.20
2018-12-29T07:33:24.669Z,19.80
2018-12-29T07:35:54.182Z,19.43
2018-12-29T07:38:22.655Z,19.93
2018-12-29T07:40:51.199Z,20.40
2018-12-29T07:43:19.622Z,18.13
2018-12-29T07:45:48.096Z,18.83
2018-12-29T07:48:16.535Z,20.50
2018-12-29T07:50:45.092Z,19.83
2018-12-29T07:53:13.980Z,17.37
2018-12-29T07:55:42.460Z,18.53
2018-12-29T07:58:11.027Z,18.63
2018-12-29T08:00:39.495Z,18.20
2018-12-29T08:03:08.211Z,19.13
2018-12-29T08:05:36.799Z,18.97
2018-12-29T08:08:05.456Z,18.87
2018-12-29T08:10:34.063Z,18.80
2018-12-29T08:13:02.566Z,17.57
2018-12-29T08:15:31.228Z,18.83
2018-12-29T08:17:59.955Z,17.27
2018-12-29T08:20:28.437Z,17.80
2018-12-29T08:22:56.922Z,18.90
2018-12-29T08:25:25.601Z,18.83
2018-12-29T08:27:54.195Z,17.43
2018-12-29T08:30:23.192Z,16.70
2018-12-29T08:32:54.427Z,16.83
2018-12-29T08:35:26.804Z,17.43
2018-12-29T08:37:55.362Z,16.77
2018-12-29T08:40:24.225Z,16.70
2018-12-29T08:42:54.366Z,16.10
2018-12-29T08:45:23.018Z,15.67
2018-12-29T08:47:51.612Z,15.23
2018-12-29T08:50:25.749Z,16.20
2018-12-29T08:52:54.401Z,16.23
2018-12-29T08:55:23.500Z,14.93
2018-12-29T08:57:51.947Z,15.70
2018-12-29T09:00:20.493Z,16.10
2018-12-29T09:02:49.009Z,15.43
2018-12-29T09:05:17.619Z,15.03
2018-12-29T09:07:46.072Z,15.60
2018-12-29T09:10:14.683Z,16.00
2018-12-29T09:12:43.146Z,15.63
2018-12-29T09:15:11.599Z,15.60
2018-12-29T09:17:40.108Z,14.20
2018-12-29T09:20:08.752Z,15.53
2018-12-29T09:22:37.644Z,15.40
2018-12-29T09:25:06.158Z,15.67
2018-12-29T09:27:34.646Z,17.57
2018-12-29T09:30:03.306Z,16.67
2018-12-29T09:32:33.895Z,16.33
2018-12-29T09:35:03.889Z,15.03
2018-12-29T09:37:32.454Z,16.03
2018-12-29T09:40:01.272Z,15.73
2018-12-29T09:42:29.730Z,16.27
2018-12-29T09:44:58.356Z,14.57
2018-12-29T09:47:26.876Z,15.50
2018-12-29T09:49:55.327Z,16.43
2018-12-29T09:52:23.828Z,15.93
2018-12-29T09:54:52.365Z,15.00
2018-12-29T09:57:20.864Z,15.10
2018-12-29T09:59:49.372Z,15.07
2018-12-29T10:02:17.983Z,15.23
2018-12-29T10:04:46.581Z,13.83
2018-12-29T10:07:15.058Z,14.17
2018-12-29T10:09:43.580Z,14.33
2018-12-29T10:12:12.061Z,14.13
2018-12-29T10:14:40.542Z,14.90
2018-12-29T10:17:09.313Z,14.40
2018-12-29T10:19:39.361Z,14.77
2018-12-29T10:22:07.990Z,14.87
2018-12-29T10:24:36.877Z,14.00
2018-12-29T10:27:05.618Z,13.83
2018-12-29T10:29:34.271Z,14.27
2018-12-29T10:32:02.766Z,13.83
2018-12-29T10:34:31.372Z,13.30
2018-12-29T10:36:59.940Z,14.00
2018-12-29T10:39:28.514Z,14.70
2018-12-29T10:41:57.111Z,13.80
2018-12-29T10:44:25.853Z,14.73
2018-12-29T10:46:54.533Z,13.90
2018-12-29T10:49:23.033Z,13.27
2018-12-29T10:51:51.622Z,13.27
2018-12-29T10:54:23.761Z,14.43
2018-12-29T10:56:52.528Z,13.87
2018-12-29T10:59:21.270Z,15.40
2018-12-29T11:01:50.009Z,15.47
2018-12-29T11:04:18.777Z,15.77
2018-12-29T11:06:47.534Z,15.50
2018-12-29T11:09:16.145Z,15.67
2018-12-29T11:11:44.713Z,14.70
2018-12-29T11:14:13.335Z,16.00
2018-12-29T11:16:41.951Z,15.80
2018-12-29T11:19:11.916Z,15.20
2018-12-29T11:21:40.357Z,15.30
2018-12-29T11:24:08.920Z,16.13
2018-12-29T11:26:37.505Z,16.10
2018-12-29T11:29:06.174Z,15.17
2018-12-29T11:31:34.688Z,16.00
2018-12-29T11:34:04.605Z,16.13
2018-12-29T11:36:33.212Z,16.33
2018-12-29T11:39:01.691Z,15.13
2018-12-29T11:41:30.157Z,16.10
2018-12-29T11:43:58.766Z,16.83
2018-12-29T11:46:27.376Z,15.43
2018-12-29T11:48:56.087Z,14.87
2018-12-29T11:51:24.550Z,14.73
2018-12-29T11:53:53.119Z,15.37
2018-12-29T11:56:21.575Z,15.93
2018-12-29T11:58:50.078Z,14.87
2018-12-29T12:01:18.517Z,15.57
2018-12-29T12:03:47.047Z,15.70
2018-12-29T12:06:15.523Z,14.87
2018-12-29T12:08:43.969Z,15.07
2018-12-29T12:11:12.455Z,14.37
2018-12-29T12:13:40.920Z,15.60
2018-12-29T12:16:09.451Z,15.87
2018-12-29T12:18:37.890Z,16.27
2018-12-29T12:21:12.382Z,15.47
2018-12-29T12:23:41.103Z,15.90
2018-12-29T12:26:09.630Z,16.57
2018-12-29T12:28:39.848Z,15.93
2018-12-29T12:31:10.248Z,16.27
2018-12-29T12:33:38.895Z,15.50
2018-12-29T12:36:07.642Z,16.30
2018-12-29T12:38:36.510Z,17.57
2018-12-29T12:41:05.094Z,17.40
2018-12-29T12:43:34.756Z,17.53
2018-12-29T12:46:03.525Z,17.47
2018-12-29T12:48:32.236Z,18.80
2018-12-29T12:51:01.090Z,18.40
2018-12-29T12:53:29.755Z,17.23
2018-12-29T12:55:58.392Z,18.30
2018-12-29T12:58:27.323Z,18.23
2018-12-29T13:00:58.098Z,18.50
2018-12-29T13:03:27.039Z,19.53
2018-12-29T13:05:55.664Z,19.77
2018-12-29T13:08:25.635Z,19.47
2018-12-29T13:10:54.230Z,19.10
2018-12-29T13:13:22.698Z,19.40
2018-12-29T13:15:51.303Z,19.27
2018-12-29T13:18:21.881Z,19.87
2018-12-29T13:20:50.384Z,19.73
2018-12-29T13:23:18.980Z,20.50
2018-12-29T13:25:47.464Z,19.43
2018-12-29T13:28:16.117Z,20.37
2018-12-29T13:30:44.732Z,20.63
2018-12-29T13:33:13.252Z,21.90
2018-12-29T13:35:41.790Z,22.63
2018-12-29T13:38:10.349Z,21.73
2018-12-29T13:40:38.799Z,20.27
2018-12-29T13:43:07.329Z,22.37
2018-12-29T13:45:35.888Z,21.33
2018-12-29T13:48:04.343Z,20.47
2018-12-29T13:50:33.005Z,20.60
2018-12-29T13:53:01.511Z,20.60
2018-12-29T13:55:30.114Z,20.47
2018-12-29T13:57:59.612Z,20.33
2018-12-29T14:00:28.159Z,19.77
2018-12-29T14:02:56.919Z,20.30
2018-12-29T14:05:25.911Z,19.00
2018-12-29T14:07:54.394Z,18.23
2018-12-29T14:10:22.928Z,18.73
2018-12-29T14:12:51.457Z,18.80
2018-12-29T14:15:19.985Z,18.70
2018-12-29T14:17:48.699Z,18.93
2018-12-29T14:20:17.323Z,17.70
2018-12-29T14:22:45.879Z,16.90
2018-12-29T14:25:14.414Z,17.77
2018-12-29T14:27:42.894Z,15.93
2018-12-29T14:30:11.839Z,16.07
2018-12-29T14:32:40.332Z,15.73
2018-12-29T14:35:08.864Z,14.53
2018-12-29T14:37:37.504Z,14.57
2018-12-29T14:40:07.043Z,13.63
2018-12-29T14:42:35.946Z,14.27
2018-12-29T14:45:04.783Z,14.10
2018-12-29T14:47:33.275Z,12.97
2018-12-29T14:50:01.927Z,15.20
2018-12-29T14:52:30.445Z,13.90
2018-12-29T14:54:59.270Z,13.83
2018-12-29T14:57:27.997Z,13.83
2018-12-29T14:59:56.643Z,13.57
2018-12-29T15:02:25.465Z,14.07
2018-12-29T15:04:54.182Z,14.80
2018-12-29T15:07:22.716Z,13.67
2018-12-29T15:09:52.837Z,13.37
2018-12-29T15:12:21.746Z,12.83
2018-12-29T15:14:50.287Z,12.60
2018-12-29T15:17:18.937Z,13.50
2018-12-29T15:19:47.476Z,13.33
2018-12-29T15:22:16.396Z,14.40
2018-12-29T15:24:45.595Z,14.83
2018-12-29T15:27:14.379Z,13.67
2018-12-29T15:32:18.534Z,13.63
2018-12-29T15:34:47.231Z,14.50
2018-12-29T15:37:15.781Z,13.07
2018-12-29T15:39:44.277Z,14.53
2018-12-29T15:42:12.737Z,13.73
2018-12-29T15:44:53.153Z,13.70
2018-12-29T15:47:11.439Z,13.63
2018-12-29T15:49:39.900Z,13.27
2018-12-29T15:52:08.323Z,14.57
2018-12-29T15:54:56.528Z,13.37
2018-12-29T15:57:25.061Z,13.27
2018-12-29T15:59:53.817Z,15.35
2018-12-29T16:02:22.446Z,14.40
2018-12-29T16:04:52.809Z,14.13
2018-12-29T16:07:21.230Z,14.37
2018-12-29T16:09:49.932Z,13.17
2018-12-29T16:12:37.654Z,12.93
2018-12-29T16:15:46.073Z,12.87
2018-12-29T16:18:14.526Z,12.23
2018-12-29T16:20:43.107Z,12.40
2018-12-29T16:23:11.633Z,12.47
2018-12-29T16:25:40.432Z,11.90
2018-12-29T16:28:08.956Z,12.37
2018-12-29T16:30:37.721Z,11.97
2018-12-29T16:33:06.240Z,11.83
2018-12-29T16:35:34.740Z,11.20
2018-12-29T16:38:06.819Z,10.97
2018-12-29T16:40:35.292Z,12.67
2018-12-29T16:43:24.640Z,11.33
2018-12-29T16:45:56.416Z,10.93
2018-12-29T16:48:25.437Z,11.70
2018-12-29T16:50:54.217Z,10.63
2018-12-29T16:53:29.246Z,11.80
2018-12-29T16:55:53.688Z,10.47
2018-12-29T16:58:22.627Z,10.43
2018-12-29T17:00:53.394Z,11.07
2018-12-29T17:03:22.140Z,11.10
2018-12-29T17:06:10.364Z,10.60
2018-12-29T17:08:38.882Z,10.90
2018-12-29T17:11:07.623Z,9.27
2018-12-29T17:13:37.414Z,8.77
2018-12-29T17:16:06.236Z,7.70
2018-12-29T17:21:31.416Z,7.17
2018-12-29T17:27:29.475Z,7.17
2018-12-29T17:30:17.804Z,7.53
2018-12-29T17:32:48.051Z,6.97
2018-12-29T17:35:17.106Z,7.23
2018-12-29T17:37:45.790Z,7.60
2018-12-29T17:40:14.837Z,6.63
2018-12-29T17:42:43.270Z,7.10
2018-12-29T17:45:12.348Z,6.37
2018-12-29T17:47:41.133Z,6.57
2018-12-29T17:50:30.193Z,7.50
2018-12-29T17:52:59.361Z,7.63
2018-12-29T17:55:47.377Z,6.83
2018-12-29T17:58:16.015Z,8.20
2018-12-29T18:00:44.809Z,7.57
2018-12-29T18:05:44.457Z,7.27
2018-12-29T18:08:13.068Z,8.77
2018-12-29T18:10:41.780Z,8.03
2018-12-29T18:13:10.454Z,7.77
2018-12-29T18:15:39.030Z,7.87
2018-12-29T18:18:07.818Z,7.80
2018-12-29T18:20:36.732Z,8.67
2018-12-29T18:23:05.601Z,7.83
2018-12-29T18:28:36.357Z,8.93
2018-12-29T18:31:05.004Z,8.53
2018-12-29T18:33:37.395Z,9.30
2018-12-29T18:36:23.930Z,9.10
2018-12-29T18:38:52.366Z,9.10
2018-12-29T18:43:58.115Z,9.40
2018-12-29T18:46:26.562Z,10.17
2018-12-29T18:48:55.107Z,10.47
2018-12-29T18:51:23.574Z,11.00
2018-12-29T18:53:52.081Z,11.47
2018-12-29T18:56:20.542Z,11.63
2018-12-29T18:59:08.410Z,11.93
2018-12-29T19:01:37.043Z,12.90
2018-12-29T19:04:05.479Z,12.50
2018-12-29T19:06:33.976Z,13.23
2018-12-29T19:11:51.598Z,13.13
2018-12-29T19:14:20.036Z,12.10
2018-12-29T19:16:48.515Z,12.37
2018-12-29T19:19:17.021Z,12.17
2018-12-29T19:21:45.659Z,13.90
2018-12-29T19:24:14.296Z,14.47
2018-12-29T19:26:44.681Z,14.53
2018-12-29T19:29:13.415Z,16.03
2018-12-29T19:31:44.613Z,16.93
2018-12-29T19:34:12.938Z,15.30
2018-12-29T19:36:42.539Z,15.73
2018-12-29T19:39:14.174Z,16.43
2018-12-29T19:41:47.999Z,16.13
2018-12-29T19:47:02.526Z,16.53
2018-12-29T19:49:31.522Z,15.93
2018-12-29T19:52:00.023Z,16.93
2018-12-29T19:56:58.886Z,16.27
2018-12-29T19:59:29.055Z,15.20
2018-12-29T20:01:57.535Z,14.77
2018-12-29T20:04:25.996Z,15.50
2018-12-29T20:06:56.146Z,13.77
2018-12-29T20:09:24.655Z,14.43
2018-12-29T20:11:53.179Z,14.30
2018-12-29T20:14:22.085Z,13.73
2018-12-29T20:16:50.731Z,14.47
2018-12-29T20:19:19.399Z,13.87
2018-12-29T20:21:48.234Z,13.33
2018-12-29T20:24:16.771Z,11.83
2018-12-29T20:26:45.741Z,13.50
2018-12-29T20:29:14.328Z,13.00
2018-12-29T20:31:42.926Z,12.80
2018-12-29T20:34:11.889Z,12.87
2018-12-29T20:36:41.070Z,13.67
2018-12-29T20:39:10.095Z,12.90
2018-12-29T20:41:38.834Z,12.33
2018-12-29T20:44:07.310Z,8.17
2018-12-29T20:46:35.787Z,8.60
2018-12-29T20:49:04.255Z,8.80
2018-12-29T20:51:33.089Z,7.43
2018-12-29T20:54:01.558Z,7.43
2018-12-29T20:56:30.003Z,6.20
2018-12-29T20:58:58.524Z,5.50
2018-12-29T21:01:26.961Z,3.43
2018-12-29T21:03:55.394Z,3.53
2018-12-29T21:06:23.852Z,2.70
2018-12-29T21:09:14.099Z,2.33
2018-12-29T21:11:42.677Z,2.00
2018-12-29T21:14:11.103Z,2.03
2018-12-29T21:16:39.644Z,2.43
2018-12-29T21:19:08.068Z,2.27
2018-12-29T21:21:48.969Z,2.30
2018-12-29T21:24:17.798Z,2.80
2018-12-29T21:32:18.487Z,2.50
2018-12-29T21:34:47.246Z,2.90
2018-12-29T21:37:15.676Z,2.30
2018-12-29T21:42:20.985Z,2.10
2018-12-29T21:47:39.866Z,2.37
2018-12-29T21:50:08.387Z,1.80
2018-12-29T21:52:36.815Z,1.73
2018-12-29T21:57:54.458Z,1.87
2018-12-29T22:00:23.191Z,2.00
2018-12-29T22:02:51.646Z,1.73
2018-12-29T22:05:20.080Z,1.50
2018-12-29T22:07:48.530Z,1.70
2018-12-29T22:10:16.972Z,1.70
2018-12-29T22:12:45.415Z,2.00
2018-12-29T22:15:13.847Z,1.67
2018-12-29T22:18:01.660Z,1.73
2018-12-29T22:20:33.442Z,1.63
2018-12-29T22:23:12.274Z,1.73
2018-12-29T22:26:01.659Z,2.00
2018-12-29T22:28:30.300Z,2.00
2018-12-29T22:30:59.102Z,2.40
2018-12-29T22:36:23.456Z,1.67
2018-12-29T22:38:52.647Z,1.80
2018-12-29T22:41:21.169Z,2.13
2018-12-29T22:43:49.732Z,2.20
2018-12-29T22:46:20.381Z,2.17
2018-12-29T22:48:48.827Z,2.23
2018-12-29T22:51:17.258Z,2.50
2018-12-29T22:53:45.748Z,2.10
2018-12-29T22:56:14.192Z,1.93
2018-12-29T22:58:44.361Z,2.20
2018-12-29T23:01:32.329Z,2.03
2018-12-29T23:04:00.743Z,2.60
2018-12-29T23:06:29.169Z,1.63
2018-12-29T23:11:33.936Z,1.40
2018-12-29T23:14:21.710Z,1.67
2018-12-29T23:17:11.382Z,2.03
2018-12-29T23:19:39.868Z,1.47
2018-12-29T23:22:08.580Z,1.77
2018-12-29T23:24:37.082Z,1.70
2018-12-29T23:27:05.544Z,1.50
2018-12-29T23:29:33.956Z,2.20
2018-12-29T23:32:02.418Z,1.50
2018-12-29T23:34:31.121Z,2.03
2018-12-29T23:37:18.912Z,1.40
2018-12-29T23:39:47.715Z,1.63
2018-12-29T23:45:11.723Z,1.57
2018-12-29T23:48:01.207Z,1.50
2018-12-29T23:50:29.651Z,1.90
2018-12-29T23:52:58.357Z,1.73
2018-12-29T23:55:27.201Z,1.70
2018-12-29T23:57:55.606Z,2.27
